Time;durP1;ratioP1;P1;durP2;ratioP2;P2;SDS_P1;SDS_P2;PMS_P1;PMS_P2;Temp;Humidity;BMP_temperature;BMP_pressure;BME280_temperature;BME280_humidity;BME280_pressure;Samples;Min_cycle;Max_cycle;Signal;HPM_P1;HPM_P2
2023/05/19 00:00:48;;;;;;;6.73;5.00;;;;;14.00;97380.00;;;;5091663;28;20203;-73
2023/05/19 00:03:39;;;;;;;10.33;5.00;;;;;13.90;97374.00;;;;5099531;28;20287;-71
2023/05/19 00:06:30;;;;;;;7.07;4.73;;;;;13.90;97378.00;;;;5107374;28;20217;-72
2023/05/19 00:09:20;;;;;;;8.13;4.47;;;;;14.00;97372.00;;;;5108765;28;20233;-73
2023/05/19 00:12:12;;;;;;;9.60;5.13;;;;;13.80;97375.00;;;;5107918;28;20206;-73
2023/05/19 00:15:01;;;;;;;8.27;6.17;;;;;13.80;97368.00;;;;5104287;28;20222;-73
2023/05/19 00:17:51;;;;;;;11.03;5.23;;;;;13.80;97368.00;;;;5099807;28;20199;-73
2023/05/19 00:20:40;;;;;;;13.33;4.60;;;;;13.80;97367.00;;;;5104799;28;20681;-73
2023/05/19 00:23:29;;;;;;;7.43;4.80;;;;;13.80;97363.00;;;;5100522;28;20210;-73
2023/05/19 00:26:18;;;;;;;7.07;4.67;;;;;13.70;97365.00;;;;5107598;28;20210;-73
2023/05/19 00:29:08;;;;;;;7.40;4.50;;;;;13.60;97360.00;;;;5103286;28;20230;-73
2023/05/19 00:31:57;;;;;;;6.33;4.87;;;;;13.60;97367.00;;;;5101297;28;20198;-73
2023/05/19 00:34:47;;;;;;;15.33;5.90;;;;;13.60;97354.00;;;;5102457;28;20631;-72
2023/05/19 00:37:36;;;;;;;7.37;4.70;;;;;13.60;97363.00;;;;5107962;28;20191;-73
2023/05/19 00:40:25;;;;;;;6.10;5.50;;;;;13.50;97362.00;;;;5107913;28;20195;-73
2023/05/19 00:43:14;;;;;;;7.83;5.40;;;;;13.50;97355.00;;;;5108350;28;20194;-74
2023/05/19 00:46:06;;;;;;;5.37;4.57;;;;;13.50;97356.00;;;;5094712;28;20206;-74
2023/05/19 00:48:55;;;;;;;8.60;4.83;;;;;13.30;97359.00;;;;5098004;28;20260;-73
2023/05/19 00:51:44;;;;;;;11.70;5.70;;;;;13.00;97360.00;;;;5100700;28;20590;-74
2023/05/19 00:54:33;;;;;;;7.33;5.00;;;;;13.00;97353.00;;;;5100639;28;20893;-72
2023/05/19 00:57:22;;;;;;;10.53;5.00;;;;;13.00;97356.00;;;;5100221;28;20210;-73
2023/05/19 01:00:13;;;;;;;12.30;4.43;;;;;13.20;97359.00;;;;5105001;28;20190;-73
2023/05/19 01:03:09;;;;;;;9.03;5.20;;;;;13.30;97353.00;;;;5103590;28;20202;-74
2023/05/19 01:06:03;;;;;;;6.70;4.40;;;;;13.40;97357.00;;;;5100646;28;20280;-73
2023/05/19 01:08:53;;;;;;;7.80;5.07;;;;;13.40;97358.00;;;;5091998;28;20855;-73
2023/05/19 01:11:42;;;;;;;6.70;4.93;;;;;13.30;97348.00;;;;5092167;28;20198;-73
2023/05/19 01:14:31;;;;;;;8.17;5.00;;;;;13.20;97350.00;;;;5099961;28;20227;-74
2023/05/19 01:17:27;;;;;;;7.47;4.50;;;;;13.20;97350.00;;;;5107364;28;20198;-74
2023/05/19 01:20:21;;;;;;;6.63;5.00;;;;;13.30;97349.00;;;;5107874;28;20199;-73
2023/05/19 01:23:28;;;;;;;4.53;4.03;;;;;13.20;97348.00;;;;5107225;28;20198;-73
2023/05/19 01:26:43;;;;;;;8.37;5.13;;;;;13.10;97348.00;;;;5107363;28;20926;-73
2023/05/19 01:29:47;;;;;;;7.93;5.40;;;;;12.80;97353.00;;;;5106705;28;20211;-73
2023/05/19 01:32:38;;;;;;;8.03;4.90;;;;;12.90;97348.00;;;;5107418;28;20202;-73
2023/05/19 01:35:27;;;;;;;6.00;4.73;;;;;13.10;97350.00;;;;5107071;28;20229;-73
2023/05/19 01:38:18;;;;;;;9.63;6.57;;;;;13.10;97347.00;;;;5106596;28;20211;-73
2023/05/19 01:41:07;;;;;;;5.87;5.13;;;;;13.20;97347.00;;;;5107843;28;20201;-73
2023/05/19 01:43:57;;;;;;;7.37;5.63;;;;;13.10;97350.00;;;;5109523;28;20694;-74
2023/05/19 01:46:46;;;;;;;9.73;5.20;;;;;13.20;97342.00;;;;5110997;28;20584;-73
2023/05/19 01:49:36;;;;;;;13.43;5.40;;;;;13.00;97345.00;;;;5103991;28;20235;-74
2023/05/19 01:52:25;;;;;;;7.33;4.70;;;;;13.00;97342.00;;;;5111275;28;20198;-73
2023/05/19 01:55:14;;;;;;;9.87;5.27;;;;;12.90;97350.00;;;;5111792;28;20226;-74
2023/05/19 01:58:10;;;;;;;6.03;5.30;;;;;12.80;97342.00;;;;5110510;28;20197;-73
2023/05/19 02:01:07;;;;;;;8.83;6.53;;;;;12.50;97346.00;;;;5106220;28;20214;-73
2023/05/19 02:04:06;;;;;;;11.63;5.30;;;;;12.80;97348.00;;;;5105850;28;20226;-74
2023/05/19 02:07:03;;;;;;;5.47;4.93;;;;;12.60;97344.00;;;;5111919;28;20206;-72
2023/05/19 02:09:58;;;;;;;8.33;4.97;;;;;12.30;97347.00;;;;5110751;28;20219;-70
2023/05/19 02:12:47;;;;;;;11.50;5.20;;;;;12.20;97327.00;;;;5111463;28;20205;-70
2023/05/19 02:15:40;;;;;;;12.20;5.37;;;;;12.20;97340.00;;;;5111862;28;20701;-70
2023/05/19 02:18:30;;;;;;;6.23;5.63;;;;;12.50;97330.00;;;;5109924;28;20267;-70
2023/05/19 02:21:19;;;;;;;5.87;4.70;;;;;12.60;97338.00;;;;5110424;28;20199;-71
2023/05/19 02:24:09;;;;;;;10.87;5.83;;;;;12.50;97332.00;;;;5111050;28;20235;-71
2023/05/19 02:26:58;;;;;;;6.10;5.40;;;;;12.60;97331.00;;;;5111334;28;20606;-71
2023/05/19 02:29:47;;;;;;;8.77;5.10;;;;;12.70;97332.00;;;;5111215;28;20214;-71
2023/05/19 02:32:36;;;;;;;7.00;4.73;;;;;12.60;97334.00;;;;5103785;28;20191;-70
2023/05/19 02:35:26;;;;;;;7.10;5.93;;;;;12.50;97337.00;;;;5102750;28;20283;-70
2023/05/19 02:38:15;;;;;;;9.20;5.37;;;;;12.30;97338.00;;;;5109877;28;20194;-71
2023/05/19 02:41:06;;;;;;;12.03;6.50;;;;;12.40;97328.00;;;;5110630;28;20209;-70
2023/05/19 02:43:55;;;;;;;6.93;5.43;;;;;12.40;97328.00;;;;5110275;28;20227;-70
2023/05/19 02:46:44;;;;;;;7.83;5.10;;;;;12.40;97323.00;;;;5103193;28;20209;-70
2023/05/19 02:49:34;;;;;;;7.93;5.20;;;;;12.50;97327.00;;;;5100995;28;20230;-70
2023/05/19 02:52:23;;;;;;;8.57;5.57;;;;;12.50;97313.00;;;;5103194;28;20202;-70
2023/05/19 02:55:15;;;;;;;7.67;5.60;;;;;12.40;97325.00;;;;5109395;28;20229;-70
2023/05/19 02:58:06;;;;;;;6.60;5.83;;;;;12.50;97317.00;;;;5109680;28;20198;-70
2023/05/19 03:00:55;;;;;;;13.07;5.90;;;;;12.50;97323.00;;;;5104254;28;20201;-70
2023/05/19 03:03:44;;;;;;;7.23;6.47;;;;;12.60;97327.00;;;;5106117;28;20223;-70
2023/05/19 03:06:33;;;;;;;7.77;5.90;;;;;12.70;97325.00;;;;5107960;28;20198;-70
2023/05/19 03:09:22;;;;;;;15.53;5.73;;;;;12.70;97323.00;;;;5108504;28;20226;-70
2023/05/19 03:12:11;;;;;;;5.60;4.67;;;;;12.60;97322.00;;;;5099506;28;20617;-70
2023/05/19 03:15:02;;;;;;;8.43;5.60;;;;;12.40;97319.00;;;;5102271;28;20230;-70
2023/05/19 03:17:51;;;;;;;7.80;5.43;;;;;12.40;97314.00;;;;5106716;28;20225;-70
2023/05/19 03:20:41;;;;;;;7.50;5.70;;;;;12.20;97317.00;;;;5109080;28;20206;-70
2023/05/19 03:23:30;;;;;;;8.40;5.30;;;;;11.90;97329.00;;;;5109506;28;20203;-70
2023/05/19 03:26:19;;;;;;;5.73;4.73;;;;;12.20;97320.00;;;;5108884;28;20221;-70
2023/05/19 03:29:08;;;;;;;7.83;5.67;;;;;12.10;97325.00;;;;5108842;28;20199;-70
2023/05/19 03:31:58;;;;;;;10.50;5.97;;;;;12.30;97305.00;;;;5108458;28;20221;-70
2023/05/19 03:34:47;;;;;;;7.33;6.23;;;;;12.50;97307.00;;;;5101741;28;20218;-70
2023/05/19 03:37:36;;;;;;;5.70;5.03;;;;;12.30;97309.00;;;;5099394;28;20206;-70
2023/05/19 03:40:25;;;;;;;8.20;5.47;;;;;12.00;97311.00;;;;5108982;28;20681;-70
2023/05/19 03:43:14;;;;;;;7.10;5.40;;;;;11.90;97324.00;;;;5108327;28;20206;-70
2023/05/19 03:46:04;;;;;;;8.50;6.10;;;;;12.00;97321.00;;;;5108053;28;20307;-70
2023/05/19 03:48:54;;;;;;;9.13;5.60;;;;;12.10;97326.00;;;;5108315;28;20198;-69
2023/05/19 03:51:43;;;;;;;8.13;6.17;;;;;12.40;97324.00;;;;5109028;28;20223;-70
2023/05/19 03:54:32;;;;;;;9.13;5.30;;;;;12.50;97322.00;;;;5108816;28;20234;-70
2023/05/19 03:57:21;;;;;;;7.83;5.93;;;;;12.60;97324.00;;;;5108448;28;20198;-70
2023/05/19 04:00:11;;;;;;;7.80;5.40;;;;;12.40;97321.00;;;;5105346;28;20217;-70
2023/05/19 04:03:00;;;;;;;8.70;5.63;;;;;12.10;97313.00;;;;5108109;28;20198;-70
2023/05/19 04:05:51;;;;;;;6.90;5.37;;;;;12.20;97322.00;;;;5108475;28;20213;-70
2023/05/19 04:08:40;;;;;;;9.50;5.37;;;;;12.30;97315.00;;;;5108379;28;20737;-69
2023/05/19 04:11:29;;;;;;;8.33;5.43;;;;;12.20;97321.00;;;;5108275;28;20226;-70
2023/05/19 04:14:18;;;;;;;10.97;5.63;;;;;12.30;97318.00;;;;5108268;28;20227;-70
2023/05/19 04:17:08;;;;;;;9.37;5.90;;;;;12.30;97323.00;;;;5104569;28;20215;-70
2023/05/19 04:19:56;;;;;;;5.50;5.00;;;;;12.40;97327.00;;;;5108469;28;20694;-70
2023/05/19 04:22:47;;;;;;;8.07;6.13;;;;;12.40;97330.00;;;;5101340;28;20202;-70
2023/05/19 04:25:36;;;;;;;6.03;5.07;;;;;12.60;97337.00;;;;5101133;28;20231;-72
2023/05/19 04:28:25;;;;;;;8.10;5.30;;;;;12.70;97343.00;;;;5092132;28;20206;-70
2023/05/19 04:31:15;;;;;;;6.17;4.83;;;;;12.70;97347.00;;;;5088521;28;20219;-70
2023/05/19 04:34:04;;;;;;;8.27;5.53;;;;;12.60;97348.00;;;;5103707;28;20723;-70
2023/05/19 04:36:54;;;;;;;9.23;6.10;;;;;12.40;97346.00;;;;5108233;28;20202;-70
2023/05/19 04:39:45;;;;;;;6.23;5.03;;;;;12.50;97351.00;;;;5107113;28;20207;-70
2023/05/19 04:42:34;;;;;;;6.80;6.10;;;;;12.50;97359.00;;;;5098449;28;20203;-70
2023/05/19 04:45:24;;;;;;;6.87;4.97;;;;;12.60;97367.00;;;;5091905;28;20226;-70
2023/05/19 04:48:13;;;;;;;8.47;5.80;;;;;12.80;97370.00;;;;5089913;28;20200;-70
2023/05/19 04:51:02;;;;;;;10.13;5.93;;;;;13.00;97373.00;;;;5103338;28;20230;-70
2023/05/19 04:53:53;;;;;;;7.50;5.07;;;;;13.00;97375.00;;;;5108695;28;20214;-70
2023/05/19 04:56:43;;;;;;;8.50;5.13;;;;;13.00;97380.00;;;;5108962;28;20206;-70
2023/05/19 04:59:32;;;;;;;8.20;5.13;;;;;13.00;97374.00;;;;5107894;28;20210;-69
2023/05/19 05:02:21;;;;;;;7.40;4.33;;;;;13.10;97381.00;;;;5107753;28;20198;-70
2023/05/19 05:05:10;;;;;;;9.37;4.83;;;;;13.20;97380.00;;;;5103675;28;20409;-70
2023/05/19 05:07:59;;;;;;;8.07;4.03;;;;;13.10;97384.00;;;;5108299;28;20206;-70
2023/05/19 05:10:50;;;;;;;7.53;3.77;;;;;13.20;97387.00;;;;5107519;28;20210;-70
2023/05/19 05:13:41;;;;;;;8.50;3.17;;;;;13.20;97385.00;;;;5108002;28;20202;-70
2023/05/19 05:16:30;;;;;;;6.33;3.20;;;;;13.20;97386.00;;;;5108359;28;20666;-70
2023/05/19 05:19:21;;;;;;;7.57;3.40;;;;;13.30;97392.00;;;;5108342;28;20198;-70
2023/05/19 05:22:10;;;;;;;5.23;3.63;;;;;13.30;97396.00;;;;5112819;28;20194;-70
2023/05/19 05:25:00;;;;;;;6.07;4.33;;;;;13.40;97402.00;;;;5101195;28;20250;-70
2023/05/19 05:27:49;;;;;;;7.93;3.47;;;;;13.40;97398.00;;;;5099152;28;20198;-70
2023/05/19 05:30:40;;;;;;;4.10;3.17;;;;;13.40;97405.00;;;;5096815;28;20215;-70
2023/05/19 05:33:29;;;;;;;3.90;3.03;;;;;13.30;97406.00;;;;5112557;27;20205;-70
2023/05/19 05:36:18;;;;;;;5.20;3.33;;;;;13.30;97404.00;;;;5111231;28;20207;-70
2023/05/19 05:39:07;;;;;;;5.27;2.90;;;;;13.50;97408.00;;;;5111266;28;20221;-70
2023/05/19 05:41:56;;;;;;;9.33;4.07;;;;;13.30;97406.00;;;;5104074;28;20195;-70
2023/05/19 05:44:45;;;;;;;5.70;3.67;;;;;13.20;97398.00;;;;5096332;28;20226;-70
2023/05/19 05:47:38;;;;;;;4.17;2.60;;;;;13.30;97404.00;;;;5103269;28;20198;-70
2023/05/19 05:50:28;;;;;;;5.03;3.27;;;;;13.70;97406.00;;;;5111238;28;20206;-70
2023/05/19 05:53:19;;;;;;;5.13;3.00;;;;;13.90;97402.00;;;;5108009;28;20581;-70
2023/05/19 05:56:10;;;;;;;5.43;3.20;;;;;14.10;97403.00;;;;5106333;28;20248;-70
2023/05/19 05:58:59;;;;;;;4.30;2.67;;;;;14.30;97406.00;;;;5107091;28;20210;-70
2023/05/19 06:01:48;;;;;;;4.63;3.50;;;;;14.50;97405.00;;;;5104931;28;20205;-70
2023/05/19 06:04:39;;;;;;;5.93;3.43;;;;;14.70;97408.00;;;;5111087;28;20716;-70
2023/05/19 06:07:28;;;;;;;7.53;3.63;;;;;14.70;97415.00;;;;5109821;28;20202;-70
2023/05/19 06:10:17;;;;;;;4.67;3.90;;;;;14.90;97423.00;;;;5112282;28;20206;-70
2023/05/19 06:13:06;;;;;;;7.00;3.07;;;;;15.00;97420.00;;;;5111048;28;20207;-70
2023/05/19 06:15:55;;;;;;;4.17;3.40;;;;;14.90;97424.00;;;;5111459;28;20206;-70
2023/05/19 06:18:45;;;;;;;4.40;3.63;;;;;15.10;97433.00;;;;5110074;28;20198;-70
2023/05/19 06:21:36;;;;;;;4.87;3.50;;;;;14.90;97426.00;;;;5109860;28;20206;-70
2023/05/19 06:24:25;;;;;;;4.53;3.67;;;;;14.70;97427.00;;;;5109801;28;20245;-70
2023/05/19 06:27:14;;;;;;;5.73;4.07;;;;;14.50;97423.00;;;;5110586;28;20206;-70
2023/05/19 06:30:03;;;;;;;10.60;4.50;;;;;15.00;97427.00;;;;5110932;28;20199;-70
2023/05/19 06:32:52;;;;;;;8.23;4.80;;;;;14.90;97423.00;;;;5110333;28;20226;-70
2023/05/19 06:35:41;;;;;;;5.77;4.30;;;;;15.10;97431.00;;;;5110273;28;20219;-70
2023/05/19 06:38:32;;;;;;;7.50;5.17;;;;;15.20;97428.00;;;;5110612;28;20209;-70
2023/05/19 06:41:21;;;;;;;9.20;5.83;;;;;15.40;97432.00;;;;5109874;28;20215;-70
2023/05/19 06:44:10;;;;;;;8.47;6.67;;;;;15.40;97437.00;;;;5110202;28;20223;-70
2023/05/19 06:46:59;;;;;;;9.53;6.33;;;;;15.40;97441.00;;;;5105491;28;20708;-70
2023/05/19 06:49:53;;;;;;;7.97;6.60;;;;;15.20;97435.00;;;;5109612;28;20210;-70
2023/05/19 06:52:43;;;;;;;12.40;6.77;;;;;15.00;97443.00;;;;5110468;28;20584;-70
2023/05/19 06:55:33;;;;;;;7.03;6.27;;;;;15.20;97434.00;;;;5108862;28;20226;-70
2023/05/19 06:58:23;;;;;;;15.30;6.93;;;;;15.20;97434.00;;;;5109135;28;20198;-70
2023/05/19 07:01:12;;;;;;;10.87;6.60;;;;;15.00;97439.00;;;;5109579;28;20202;-71
2023/05/19 07:04:01;;;;;;;9.20;5.80;;;;;15.20;97436.00;;;;5110629;28;20245;-71
2023/05/19 07:06:50;;;;;;;9.50;6.90;;;;;15.40;97435.00;;;;5109882;28;20198;-70
2023/05/19 07:09:39;;;;;;;8.00;6.13;;;;;15.50;97431.00;;;;5108884;28;20206;-70
2023/05/19 07:12:29;;;;;;;12.23;5.93;;;;;13.20;97417.00;;;;5109547;28;20617;-73
2023/05/19 07:15:19;;;;;;;11.43;5.97;;;;;13.30;97426.00;;;;5109051;28;20214;-69
2023/05/19 07:18:07;;;;;;;9.60;6.10;;;;;13.70;97422.00;;;;5106145;28;20202;-71
2023/05/19 07:20:57;;;;;;;8.47;6.27;;;;;13.80;97420.00;;;;5105220;28;20245;-70
2023/05/19 07:23:46;;;;;;;8.53;6.40;;;;;14.20;97415.00;;;;5109145;28;20218;-71
2023/05/19 07:26:35;;;;;;;8.80;6.40;;;;;14.40;97415.00;;;;5109698;28;20589;-71
2023/05/19 07:29:25;;;;;;;11.57;6.33;;;;;14.60;97418.00;;;;5094320;28;20701;-71
2023/05/19 07:32:14;;;;;;;10.93;6.83;;;;;14.70;97411.00;;;;5099547;27;20233;-70
2023/05/19 07:35:04;;;;;;;8.53;6.13;;;;;14.90;97408.00;;;;5104977;28;20234;-71
2023/05/19 07:37:53;;;;;;;11.77;6.47;;;;;15.20;97409.00;;;;5103265;28;20198;-70
2023/05/19 07:40:42;;;;;;;8.93;6.27;;;;;15.30;97406.00;;;;5108158;28;20681;-71
2023/05/19 07:43:31;;;;;;;7.87;6.60;;;;;15.10;97404.00;;;;5109328;28;20924;-71
2023/05/19 07:46:21;;;;;;;8.57;6.50;;;;;15.70;97406.00;;;;5109259;28;20220;-71
2023/05/19 07:49:10;;;;;;;9.13;6.93;;;;;15.90;97408.00;;;;5108371;28;20693;-71
2023/05/19 07:52:00;;;;;;;14.60;6.53;;;;;16.50;97411.00;;;;5099032;28;20685;-71
2023/05/19 07:54:48;;;;;;;15.17;7.30;;;;;16.30;97404.00;;;;5101196;28;20619;-71
2023/05/19 07:57:38;;;;;;;9.87;6.37;;;;;16.80;97404.00;;;;5107118;28;20209;-71
2023/05/19 08:00:27;;;;;;;8.37;6.00;;;;;17.40;97399.00;;;;5106711;28;20221;-71
2023/05/19 08:03:17;;;;;;;9.83;7.03;;;;;17.40;97395.00;;;;5109500;28;20211;-71
2023/05/19 08:06:06;;;;;;;7.00;6.30;;;;;18.20;97388.00;;;;5101899;28;20207;-71
2023/05/19 08:08:55;;;;;;;7.80;6.13;;;;;18.80;97383.00;;;;5100158;28;20195;-71
2023/05/19 08:11:45;;;;;;;8.23;6.03;;;;;18.90;97385.00;;;;5105043;28;20666;-71
2023/05/19 08:14:34;;;;;;;9.70;5.60;;;;;18.20;97385.00;;;;5108713;28;20214;-71
2023/05/19 08:17:23;;;;;;;9.57;6.83;;;;;17.70;97375.00;;;;5107289;28;20194;-70
2023/05/19 08:20:14;;;;;;;10.30;7.00;;;;;17.00;97363.00;;;;5109033;28;20195;-73
2023/05/19 08:23:03;;;;;;;8.50;5.60;;;;;18.60;97364.00;;;;5091771;28;20195;-73
2023/05/19 08:25:52;;;;;;;8.27;6.40;;;;;19.20;97377.00;;;;5105433;28;20231;-73
2023/05/19 08:28:41;;;;;;;7.40;6.17;;;;;19.60;97378.00;;;;5103590;28;20585;-73
2023/05/19 08:31:30;;;;;;;9.40;5.30;;;;;20.20;97367.00;;;;5107824;28;20206;-73
2023/05/19 08:34:19;;;;;;;7.90;6.07;;;;;20.10;97355.00;;;;5094513;28;20228;-73
2023/05/19 08:37:10;;;;;;;6.80;5.77;;;;;20.10;97370.00;;;;5105395;28;20209;-73
2023/05/19 08:39:59;;;;;;;7.13;5.10;;;;;19.70;97376.00;;;;5098554;28;20214;-72
2023/05/19 08:42:48;;;;;;;8.73;6.03;;;;;19.70;97367.00;;;;5101586;28;20230;-72
2023/05/19 08:45:38;;;;;;;9.93;6.10;;;;;19.90;97376.00;;;;5100219;28;20218;-73
2023/05/19 08:48:30;;;;;;;9.30;5.23;;;;;20.20;97367.00;;;;5100897;28;20677;-73
2023/05/19 08:51:24;;;;;;;6.30;5.47;;;;;20.30;97354.00;;;;5107980;28;20206;-73
2023/05/19 08:54:16;;;;;;;7.10;5.20;;;;;20.40;97366.00;;;;5107146;28;20233;-73
2023/05/19 08:57:06;;;;;;;10.13;6.03;;;;;20.30;97365.00;;;;5107410;28;20201;-73
2023/05/19 08:59:56;;;;;;;10.53;5.77;;;;;20.50;97365.00;;;;5108411;28;20241;-73
2023/05/19 09:02:47;;;;;;;7.90;5.53;;;;;20.50;97360.00;;;;5099752;28;20198;-72
2023/05/19 09:05:39;;;;;;;5.43;4.93;;;;;20.40;97369.00;;;;5106655;28;20235;-73
2023/05/19 09:08:29;;;;;;;7.27;4.70;;;;;20.00;97378.00;;;;5107688;28;20198;-73
2023/05/19 09:11:21;;;;;;;6.67;4.87;;;;;20.30;97380.00;;;;5100110;28;20210;-73
2023/05/19 09:14:10;;;;;;;5.20;4.10;;;;;20.10;97384.00;;;;5101436;28;20233;-72
2023/05/19 09:16:59;;;;;;;9.63;4.60;;;;;20.10;97380.00;;;;5103201;28;20580;-73
2023/05/19 09:19:48;;;;;;;6.83;4.83;;;;;19.80;97381.00;;;;5108961;28;20693;-73
2023/05/19 09:22:44;;;;;;;5.60;4.27;;;;;19.20;97390.00;;;;5107790;28;20207;-72
2023/05/19 09:25:33;;;;;;;11.73;5.23;;;;;18.90;97389.00;;;;5106563;28;20230;-72
2023/05/19 09:28:28;;;;;;;4.87;4.37;;;;;18.00;97384.00;;;;5107279;28;20207;-75
2023/05/19 09:31:17;;;;;;;12.87;5.80;;;;;18.80;97390.00;;;;5107303;28;20203;-76
2023/05/19 09:34:13;;;;;;;7.73;6.23;;;;;18.30;97392.00;;;;5106429;28;20226;-76
2023/05/19 09:37:02;;;;;;;10.10;7.00;;;;;19.00;97397.00;;;;5105170;28;20214;-76
2023/05/19 09:39:52;;;;;;;7.27;5.50;;;;;19.00;97385.00;;;;5104548;28;20669;-75
2023/05/19 09:42:41;;;;;;;11.17;6.43;;;;;18.60;97380.00;;;;5105776;28;20200;-75
2023/05/19 09:45:32;;;;;;;8.13;5.33;;;;;18.80;97377.00;;;;5106036;28;20218;-75
2023/05/19 09:48:21;;;;;;;5.47;4.90;;;;;18.80;97371.00;;;;5105640;28;20195;-75
2023/05/19 09:51:10;;;;;;;9.50;5.83;;;;;19.40;97357.00;;;;5106254;28;20203;-74
2023/05/19 09:53:59;;;;;;;9.00;5.23;;;;;20.20;97362.00;;;;5106312;28;20226;-76
2023/05/19 09:56:57;;;;;;;6.97;5.07;;;;;20.00;97358.00;;;;5103054;28;20206;-74
2023/05/19 09:59:46;;;;;;;7.20;5.30;;;;;19.30;97342.00;;;;5106980;28;20198;-74
2023/05/19 10:02:38;;;;;;;4.80;4.23;;;;;20.50;97343.00;;;;5106546;28;20209;-74
2023/05/19 10:05:27;;;;;;;8.20;6.13;;;;;21.90;97345.00;;;;5097604;28;20223;-76
2023/05/19 10:08:17;;;;;;;6.97;4.70;;;;;22.00;97349.00;;;;5101324;28;20210;-73
2023/05/19 10:11:07;;;;;;;7.43;4.10;;;;;22.70;97335.00;;;;5107386;28;20210;-73
2023/05/19 10:13:56;;;;;;;7.43;4.73;;;;;22.50;97359.00;;;;5110477;28;20612;-73
2023/05/19 10:16:46;;;;;;;8.00;5.57;;;;;23.00;97354.00;;;;5099449;28;20210;-74
2023/05/19 10:19:37;;;;;;;5.57;4.03;;;19.60;99.90;22.90;97354.00;;;;5094463;28;20217;-73
2023/05/19 10:22:27;;;;;;;13.67;4.53;;;19.80;99.90;23.00;97348.00;;;;5093802;28;20199;-73
2023/05/19 10:25:18;;;;;;;6.03;5.43;;;19.90;99.90;23.80;97344.00;;;;5106353;28;20234;-73
2023/05/19 10:28:11;;;;;;;10.00;5.17;;;20.20;99.90;23.50;97364.00;;;;5098501;28;20761;-73
2023/05/19 10:31:01;;;;;;;8.73;5.30;;;20.50;99.90;21.30;97339.00;;;;5096755;28;20191;-76
2023/05/19 10:34:09;;;;;;;8.67;4.97;;;20.30;99.10;22.40;97354.00;;;;5107631;28;20728;-74
2023/05/19 10:37:13;;;;;;;6.87;4.43;;;20.20;99.50;22.30;97328.00;;;;5110415;28;20289;-78
2023/05/19 10:40:11;;;;;;;15.40;4.97;;;19.90;99.80;22.90;97350.00;;;;5106415;28;20199;-75
2023/05/19 10:43:24;;;;;;;5.70;3.97;;;20.20;99.90;23.20;97367.00;;;;5101471;28;20239;-77
2023/05/19 10:46:13;;;;;;;4.87;3.77;;;20.30;99.90;22.60;97364.00;;;;5103757;28;20190;-75
2023/05/19 10:49:02;;;;;;;5.67;4.07;;;20.20;99.90;21.80;97371.00;;;;5092565;28;20316;-77
2023/05/19 10:51:55;;;;;;;10.53;4.73;;;20.00;99.20;22.20;97366.00;;;;5099919;28;20214;-75
2023/05/19 10:54:46;;;;;;;6.30;3.73;;;19.90;99.40;22.60;97369.00;;;;5110337;28;20231;-75
2023/05/19 10:57:35;;;;;;;4.70;4.03;;;19.80;99.90;22.90;97366.00;;;;5109106;28;20210;-76
2023/05/19 11:00:31;;;;;;;5.87;3.47;;;19.90;99.90;22.40;97371.00;;;;5107749;28;20202;-76
2023/05/19 11:03:22;;;;;;;5.63;3.73;;;19.90;98.90;22.70;97377.00;;;;5108266;28;20869;-75
2023/05/19 11:06:24;;;;;;;5.23;4.00;;;19.90;99.20;22.90;97373.00;;;;5108198;28;20685;-75
2023/05/19 11:09:15;;;;;;;7.63;3.70;;;20.00;99.70;23.50;97366.00;;;;5102889;27;20202;-74
2023/05/19 11:12:06;;;;;;;7.73;3.30;;;20.20;99.80;22.80;97336.00;;;;5109699;27;20194;-74
2023/05/19 11:14:55;;;;;;;4.77;4.17;;;21.30;99.30;24.40;97311.00;;;;5109587;28;20223;-74
2023/05/19 11:17:48;;;;;;;8.40;4.23;;;20.60;99.90;24.20;97307.00;;;;5107000;28;20564;-71
2023/05/19 11:20:39;;;;;;;8.20;4.73;;;21.00;98.50;24.10;97305.00;;;;5107902;28;20201;-72
2023/05/19 11:23:28;;;;;;;6.53;4.30;;;21.20;97.60;23.80;97360.00;;;;5109161;28;20209;-72
2023/05/19 11:26:39;;;;;;;5.13;4.10;;;21.30;97.40;24.10;97357.00;;;;5111393;27;20193;-72
2023/05/19 11:29:32;;;;;;;7.37;4.40;;;21.30;97.10;23.90;97366.00;;;;5107310;28;20195;-72
2023/05/19 11:32:25;;;;;;;4.33;3.93;;;21.30;97.00;23.90;97302.00;;;;5107149;28;20199;-72
2023/05/19 11:35:15;;;;;;;7.13;4.13;;;21.20;97.50;25.30;97311.00;;;;5106537;28;20728;-72
2023/05/19 11:38:05;;;;;;;7.03;4.63;;;21.60;97.90;25.10;97315.00;;;;5104921;28;20195;-72
2023/05/19 11:40:55;;;;;;;7.10;3.83;;;22.00;97.30;25.60;97312.00;;;;5108987;28;20190;-73
2023/05/19 11:43:43;;;;;;;5.73;4.03;;;22.30;95.80;24.70;97298.00;;;;5106988;28;20225;-73
2023/05/19 11:46:33;;;;;;;4.77;3.20;;;22.20;95.40;25.50;97367.00;;;;5105359;28;20202;-73
2023/05/19 11:49:22;;;;;;;4.93;3.93;;;22.30;95.80;25.30;97303.00;;;;5105967;28;20195;-72
2023/05/19 11:52:11;;;;;;;4.60;3.27;;;22.30;94.90;25.40;97367.00;;;;5107841;28;20559;-72
2023/05/19 11:55:00;;;;;;;4.03;3.03;;;22.40;94.60;24.20;97361.00;;;;5103929;28;20229;-72
2023/05/19 11:57:58;;;;;;;3.93;3.17;;;21.50;93.60;24.80;97364.00;;;;5108891;28;20197;-72
2023/05/19 12:00:51;;;;;;;5.77;3.73;;;22.00;94.10;21.30;97360.00;;;;5102817;28;20190;-71
2023/05/19 12:03:41;;;;;;;5.93;3.47;;;21.20;92.40;20.70;97314.00;;;;5108920;28;20608;-75
2023/05/19 12:06:30;;;;;;;5.33;4.83;;;20.50;93.50;21.40;97275.00;;;;5106718;28;20732;-72
2023/05/19 12:09:19;;;;;;;6.60;3.73;;;20.20;94.60;23.90;97285.00;;;;5107820;28;20704;-72
2023/05/19 12:12:08;;;;;;;5.20;3.60;;;20.60;96.40;25.30;97288.00;;;;5107511;28;20720;-72
2023/05/19 12:14:57;;;;;;;4.60;3.67;;;21.20;95.90;25.40;97349.00;;;;5109049;28;20249;-72
2023/05/19 12:17:49;;;;;;;4.80;3.10;;;21.70;95.70;24.50;97342.00;;;;5108737;27;20717;-68
2023/05/19 12:20:40;;;;;;;6.00;3.03;;;21.70;93.40;24.50;97339.00;;;;5106478;28;20275;-68
2023/05/19 12:23:30;;;;;;;4.20;3.80;;;21.70;93.80;23.40;97324.00;;;;5107642;28;20210;-68
2023/05/19 12:26:21;;;;;;;5.67;3.00;;;21.90;92.20;24.70;97255.00;;;;5108782;27;20202;-68
2023/05/19 12:29:09;;;;;;;3.10;2.77;;;21.90;92.00;26.10;97301.00;;;;5103859;28;20592;-68
2023/05/19 12:31:59;;;;;;;4.13;3.10;;;22.20;93.00;26.10;97319.00;;;;5103511;27;20209;-68
2023/05/19 12:34:48;;;;;;;7.47;3.10;;;22.50;93.20;25.40;97325.00;;;;5107613;28;20229;-68
2023/05/19 12:37:42;;;;;;;4.40;2.97;;;22.60;92.40;24.70;97331.00;;;;5108057;28;20191;-68
2023/05/19 12:40:31;;;;;;;4.10;3.07;;;22.40;91.60;24.40;97331.00;;;;5106845;28;20199;-68
2023/05/19 12:43:21;;;;;;;3.23;2.93;;;22.20;91.50;24.20;97322.00;;;;5107084;28;20587;-71
2023/05/19 12:46:11;;;;;;;4.13;3.07;;;22.00;90.60;24.10;97322.00;;;;5106247;28;20627;-71
2023/05/19 12:49:00;;;;;;;10.70;5.67;;;21.70;91.20;21.90;97324.00;;;;5102871;28;20234;-73
2023/05/19 12:51:52;;;;;;;3.70;2.77;;;21.30;90.50;22.20;97315.00;;;;5107810;28;20197;-73
2023/05/19 12:54:42;;;;;;;3.57;3.00;;;20.90;91.80;21.60;97313.00;;;;5106551;28;20222;-73
2023/05/19 12:57:32;;;;;;;2.80;2.43;;;20.60;92.10;23.20;97316.00;;;;5106322;28;20592;-73
2023/05/19 13:00:24;;;;;;;3.57;2.50;;;20.50;93.20;24.10;97252.00;;;;5104947;28;20602;-71
2023/05/19 13:03:17;;;;;;;2.20;2.00;;;20.70;93.50;25.00;97282.00;;;;5104385;28;20211;-75
2023/05/19 13:06:05;;;;;;;2.90;2.60;;;21.30;94.50;25.80;97301.00;;;;5107861;28;20295;-73
2023/05/19 13:08:54;;;;;;;4.73;3.17;;;21.80;92.90;26.80;97306.00;;;;5107615;28;20195;-72
2023/05/19 13:11:49;;;;;;;6.40;3.00;;;22.40;92.70;26.70;97314.00;;;;5106871;28;20201;-73
2023/05/19 13:14:40;;;;;;;4.40;2.90;;;22.90;91.80;25.90;97313.00;;;;5106895;28;20234;-73
2023/05/19 13:17:29;;;;;;;4.93;2.67;;;23.00;89.30;25.30;97318.00;;;;5111856;28;20579;-72
2023/05/19 13:20:18;;;;;;;5.43;3.33;;;22.80;89.60;24.70;97312.00;;;;5108148;28;20198;-73
2023/05/19 13:23:06;;;;;;;4.93;2.53;;;22.60;90.00;23.80;97313.00;;;;5108476;28;20206;-72
2023/05/19 13:25:55;;;;;;;6.47;2.80;;;22.30;86.90;23.60;97314.00;;;;5107088;28;20202;-72
2023/05/19 13:28:46;;;;;;;4.20;3.73;;;22.00;89.00;23.10;97312.00;;;;5106880;28;20209;-73
2023/05/19 13:31:35;;;;;;;2.97;2.50;;;21.50;89.10;23.70;97311.00;;;;5107658;28;20201;-73
2023/05/19 13:34:24;;;;;;;5.07;2.83;;;21.40;90.00;23.90;97307.00;;;;5105530;28;20226;-73
2023/05/19 13:37:13;;;;;;;3.47;2.80;;;21.20;90.40;24.20;97312.00;;;;5107466;28;20195;-73
2023/05/19 13:40:02;;;;;;;4.13;2.70;;;21.20;91.00;24.00;97300.00;;;;5109784;28;20700;-73
2023/05/19 13:42:51;;;;;;;4.33;2.87;;;21.20;90.60;24.30;97307.00;;;;5104850;28;20198;-73
2023/05/19 13:45:41;;;;;;;2.60;2.33;;;21.20;91.00;24.40;97309.00;;;;5108080;28;20223;-73